sensor_id;sensor_type;location;lat;lon;timestamp;P1;durP1;ratioP1;P2;durP2;ratioP2
47617;SDS011;33336;36.728;-4.414;2022-11-25T00:03:45;5.38;;;2.50;;
47617;SDS011;33336;36.728;-4.414;2022-11-25T00:08:52;5.85;;;3.08;;
47617;SDS011;33336;36.728;-4.414;2022-11-25T00:13:57;7.85;;;2.20;;
47617;SDS011;33336;36.728;-4.414;2022-11-25T00:19:00;8.98;;;2.03;;
47617;SDS011;33336;36.728;-4.414;2022-11-25T00:24:05;7.25;;;1.63;;
47617;SDS011;33336;36.728;-4.414;2022-11-25T00:29:09;8.07;;;2.08;;
47617;SDS011;33336;36.728;-4.414;2022-11-25T00:34:13;12.23;;;3.15;;
47617;SDS011;33336;36.728;-4.414;2022-11-25T00:39:18;11.00;;;2.45;;
47617;SDS011;33336;36.728;-4.414;2022-11-25T00:44:24;8.35;;;2.35;;
47617;SDS011;33336;36.728;-4.414;2022-11-25T00:49:40;11.07;;;2.40;;
47617;SDS011;33336;36.728;-4.414;2022-11-25T00:54:45;8.38;;;2.58;;
47617;SDS011;33336;36.728;-4.414;2022-11-25T00:59:49;13.52;;;3.28;;
47617;SDS011;33336;36.728;-4.414;2022-11-25T01:04:52;7.80;;;2.28;;
47617;SDS011;33336;36.728;-4.414;2022-11-25T01:09:58;9.65;;;2.65;;
47617;SDS011;33336;36.728;-4.414;2022-11-25T01:15:00;8.27;;;2.53;;
47617;SDS011;33336;36.728;-4.414;2022-11-25T01:20:04;6.00;;;2.30;;
47617;SDS011;33336;36.728;-4.414;2022-11-25T01:25:09;8.77;;;2.45;;
47617;SDS011;33336;36.728;-4.414;2022-11-25T01:30:13;6.60;;;2.08;;
47617;SDS011;33336;36.728;-4.414;2022-11-25T01:35:16;6.60;;;2.45;;
47617;SDS011;33336;36.728;-4.414;2022-11-25T01:40:21;5.05;;;2.00;;
47617;SDS011;33336;36.728;-4.414;2022-11-25T01:45:34;9.32;;;3.03;;
47617;SDS011;33336;36.728;-4.414;2022-11-25T01:50:38;6.22;;;2.38;;
47617;SDS011;33336;36.728;-4.414;2022-11-25T01:55:46;8.57;;;2.17;;
47617;SDS011;33336;36.728;-4.414;2022-11-25T02:00:52;4.22;;;1.88;;
47617;SDS011;33336;36.728;-4.414;2022-11-25T02:05:57;7.32;;;2.38;;
47617;SDS011;33336;36.728;-4.414;2022-11-25T02:11:08;9.38;;;3.03;;
47617;SDS011;33336;36.728;-4.414;2022-11-25T02:16:10;8.25;;;2.60;;
47617;SDS011;33336;36.728;-4.414;2022-11-25T02:21:13;7.15;;;1.88;;
47617;SDS011;33336;36.728;-4.414;2022-11-25T02:26:21;6.28;;;2.45;;
47617;SDS011;33336;36.728;-4.414;2022-11-25T02:31:24;6.40;;;2.00;;
47617;SDS011;33336;36.728;-4.414;2022-11-25T02:36:27;4.90;;;1.92;;
47617;SDS011;33336;36.728;-4.414;2022-11-25T02:41:32;9.70;;;2.17;;
47617;SDS011;33336;36.728;-4.414;2022-11-25T02:46:38;10.85;;;1.95;;
47617;SDS011;33336;36.728;-4.414;2022-11-25T02:51:42;7.13;;;2.00;;
47617;SDS011;33336;36.728;-4.414;2022-11-25T02:56:47;11.07;;;2.50;;
47617;SDS011;33336;36.728;-4.414;2022-11-25T03:01:50;6.00;;;1.85;;
47617;SDS011;33336;36.728;-4.414;2022-11-25T03:06:53;12.25;;;2.97;;
47617;SDS011;33336;36.728;-4.414;2022-11-25T03:11:58;10.32;;;2.08;;
47617;SDS011;33336;36.728;-4.414;2022-11-25T03:17:18;7.35;;;2.22;;
47617;SDS011;33336;36.728;-4.414;2022-11-25T03:22:21;7.93;;;1.52;;
47617;SDS011;33336;36.728;-4.414;2022-11-25T03:27:25;7.60;;;1.75;;
47617;SDS011;33336;36.728;-4.414;2022-11-25T03:32:28;6.95;;;2.22;;
47617;SDS011;33336;36.728;-4.414;2022-11-25T03:37:31;4.90;;;1.55;;
47617;SDS011;33336;36.728;-4.414;2022-11-25T03:42:36;6.72;;;1.70;;
47617;SDS011;33336;36.728;-4.414;2022-11-25T03:47:39;6.90;;;1.65;;
47617;SDS011;33336;36.728;-4.414;2022-11-25T03:52:44;6.60;;;1.70;;
47617;SDS011;33336;36.728;-4.414;2022-11-25T03:57:48;4.43;;;1.48;;
47617;SDS011;33336;36.728;-4.414;2022-11-25T04:02:52;7.03;;;2.13;;
47617;SDS011;33336;36.728;-4.414;2022-11-25T04:07:56;12.63;;;2.50;;
47617;SDS011;33336;36.728;-4.414;2022-11-25T04:13:02;7.32;;;2.55;;
47617;SDS011;33336;36.728;-4.414;2022-11-25T04:18:04;3.47;;;1.08;;
47617;SDS011;33336;36.728;-4.414;2022-11-25T04:23:08;4.78;;;1.40;;
47617;SDS011;33336;36.728;-4.414;2022-11-25T04:28:14;9.57;;;1.95;;
47617;SDS011;33336;36.728;-4.414;2022-11-25T04:33:16;4.43;;;1.67;;
47617;SDS011;33336;36.728;-4.414;2022-11-25T04:38:19;7.15;;;2.08;;
47617;SDS011;33336;36.728;-4.414;2022-11-25T04:43:25;8.55;;;1.88;;
47617;SDS011;33336;36.728;-4.414;2022-11-25T04:48:27;6.07;;;1.90;;
47617;SDS011;33336;36.728;-4.414;2022-11-25T04:53:31;15.25;;;7.50;;
47617;SDS011;33336;36.728;-4.414;2022-11-25T04:58:35;22.98;;;13.38;;
47617;SDS011;33336;36.728;-4.414;2022-11-25T05:03:56;13.75;;;9.98;;
47617;SDS011;33336;36.728;-4.414;2022-11-25T05:08:59;16.02;;;7.72;;
47617;SDS011;33336;36.728;-4.414;2022-11-25T05:14:03;7.18;;;3.63;;
47617;SDS011;33336;36.728;-4.414;2022-11-25T05:19:06;9.90;;;2.92;;
47617;SDS011;33336;36.728;-4.414;2022-11-25T05:24:09;13.07;;;4.18;;
47617;SDS011;33336;36.728;-4.414;2022-11-25T05:29:13;14.85;;;7.20;;
47617;SDS011;33336;36.728;-4.414;2022-11-25T05:34:17;5.13;;;1.55;;
47617;SDS011;33336;36.728;-4.414;2022-11-25T05:39:20;5.72;;;1.00;;
47617;SDS011;33336;36.728;-4.414;2022-11-25T05:44:25;4.53;;;1.20;;
47617;SDS011;33336;36.728;-4.414;2022-11-25T05:49:28;2.15;;;1.10;;
47617;SDS011;33336;36.728;-4.414;2022-11-25T05:54:31;4.50;;;1.65;;
47617;SDS011;33336;36.728;-4.414;2022-11-25T05:59:35;7.15;;;2.40;;
47617;SDS011;33336;36.728;-4.414;2022-11-25T06:04:38;3.70;;;1.75;;
47617;SDS011;33336;36.728;-4.414;2022-11-25T06:09:41;5.47;;;1.10;;
47617;SDS011;33336;36.728;-4.414;2022-11-25T06:14:46;4.18;;;0.90;;
47617;SDS011;33336;36.728;-4.414;2022-11-25T06:19:49;4.78;;;1.05;;
47617;SDS011;33336;36.728;-4.414;2022-11-25T06:24:52;3.72;;;1.10;;
47617;SDS011;33336;36.728;-4.414;2022-11-25T06:29:56;3.30;;;0.88;;
47617;SDS011;33336;36.728;-4.414;2022-11-25T06:35:00;3.13;;;0.70;;
47617;SDS011;33336;36.728;-4.414;2022-11-25T06:40:03;3.85;;;0.93;;
47617;SDS011;33336;36.728;-4.414;2022-11-25T06:45:09;2.92;;;0.70;;
47617;SDS011;33336;36.728;-4.414;2022-11-25T06:50:12;4.35;;;0.77;;
47617;SDS011;33336;36.728;-4.414;2022-11-25T06:55:15;9.20;;;1.05;;
47617;SDS011;33336;36.728;-4.414;2022-11-25T07:00:20;10.65;;;1.38;;
47617;SDS011;33336;36.728;-4.414;2022-11-25T07:05:23;6.07;;;1.60;;
47617;SDS011;33336;36.728;-4.414;2022-11-25T07:10:26;2.10;;;0.70;;
47617;SDS011;33336;36.728;-4.414;2022-11-25T07:15:31;7.80;;;1.13;;
47617;SDS011;33336;36.728;-4.414;2022-11-25T07:20:35;5.75;;;1.30;;
47617;SDS011;33336;36.728;-4.414;2022-11-25T07:25:38;5.90;;;1.30;;
47617;SDS011;33336;36.728;-4.414;2022-11-25T07:30:42;9.55;;;2.15;;
47617;SDS011;33336;36.728;-4.414;2022-11-25T07:35:46;6.90;;;1.30;;
47617;SDS011;33336;36.728;-4.414;2022-11-25T07:40:49;4.63;;;1.40;;
47617;SDS011;33336;36.728;-4.414;2022-11-25T07:45:53;3.53;;;0.47;;
47617;SDS011;33336;36.728;-4.414;2022-11-25T07:50:56;6.53;;;1.35;;
47617;SDS011;33336;36.728;-4.414;2022-11-25T07:55:59;5.53;;;1.25;;
47617;SDS011;33336;36.728;-4.414;2022-11-25T08:01:05;5.10;;;1.02;;
47617;SDS011;33336;36.728;-4.414;2022-11-25T08:06:15;6.82;;;1.25;;
47617;SDS011;33336;36.728;-4.414;2022-11-25T08:11:20;7.43;;;1.67;;
47617;SDS011;33336;36.728;-4.414;2022-11-25T08:16:26;9.20;;;1.30;;
47617;SDS011;33336;36.728;-4.414;2022-11-25T08:21:30;7.70;;;2.33;;
47617;SDS011;33336;36.728;-4.414;2022-11-25T08:26:34;9.75;;;1.55;;
47617;SDS011;33336;36.728;-4.414;2022-11-25T08:31:39;10.75;;;2.25;;
47617;SDS011;33336;36.728;-4.414;2022-11-25T08:36:43;8.50;;;2.30;;
47617;SDS011;33336;36.728;-4.414;2022-11-25T08:41:46;8.07;;;2.05;;
47617;SDS011;33336;36.728;-4.414;2022-11-25T08:46:50;5.75;;;2.13;;
47617;SDS011;33336;36.728;-4.414;2022-11-25T08:51:53;6.53;;;1.80;;
47617;SDS011;33336;36.728;-4.414;2022-11-25T08:56:57;7.57;;;1.88;;
47617;SDS011;33336;36.728;-4.414;2022-11-25T09:02:01;5.55;;;1.92;;
47617;SDS011;33336;36.728;-4.414;2022-11-25T09:07:05;8.25;;;1.70;;
47617;SDS011;33336;36.728;-4.414;2022-11-25T09:12:08;7.78;;;1.40;;
47617;SDS011;33336;36.728;-4.414;2022-11-25T09:17:12;5.35;;;0.88;;
47617;SDS011;33336;36.728;-4.414;2022-11-25T09:22:16;5.60;;;1.15;;
47617;SDS011;33336;36.728;-4.414;2022-11-25T09:27:20;7.40;;;1.38;;
47617;SDS011;33336;36.728;-4.414;2022-11-25T09:32:24;3.90;;;1.48;;
47617;SDS011;33336;36.728;-4.414;2022-11-25T09:37:28;4.13;;;1.30;;
47617;SDS011;33336;36.728;-4.414;2022-11-25T09:42:33;6.78;;;1.90;;
47617;SDS011;33336;36.728;-4.414;2022-11-25T09:48:18;3.58;;;1.80;;
47617;SDS011;33336;36.728;-4.414;2022-11-25T09:53:34;6.93;;;2.23;;
47617;SDS011;33336;36.728;-4.414;2022-11-25T09:58:45;10.80;;;2.92;;
47617;SDS011;33336;36.728;-4.414;2022-11-25T10:03:53;10.68;;;2.65;;
47617;SDS011;33336;36.728;-4.414;2022-11-25T10:14:04;13.90;;;3.33;;
47617;SDS011;33336;36.728;-4.414;2022-11-25T10:19:18;10.93;;;3.17;;
47617;SDS011;33336;36.728;-4.414;2022-11-25T10:24:34;11.07;;;3.00;;
47617;SDS011;33336;36.728;-4.414;2022-11-25T10:29:37;9.40;;;2.58;;
47617;SDS011;33336;36.728;-4.414;2022-11-25T10:34:43;7.10;;;2.22;;
47617;SDS011;33336;36.728;-4.414;2022-11-25T10:39:51;13.27;;;3.05;;
47617;SDS011;33336;36.728;-4.414;2022-11-25T10:44:54;7.28;;;2.55;;
47617;SDS011;33336;36.728;-4.414;2022-11-25T10:50:02;10.68;;;3.47;;
47617;SDS011;33336;36.728;-4.414;2022-11-25T10:55:13;12.25;;;3.83;;
47617;SDS011;33336;36.728;-4.414;2022-11-25T11:00:25;16.98;;;4.30;;
47617;SDS011;33336;36.728;-4.414;2022-11-25T11:05:31;13.90;;;5.03;;
47617;SDS011;33336;36.728;-4.414;2022-11-25T11:10:35;14.55;;;4.45;;
47617;SDS011;33336;36.728;-4.414;2022-11-25T11:15:43;11.70;;;4.70;;
47617;SDS011;33336;36.728;-4.414;2022-11-25T11:20:50;10.55;;;4.13;;
47617;SDS011;33336;36.728;-4.414;2022-11-25T11:25:56;3.30;;;1.13;;
47617;SDS011;33336;36.728;-4.414;2022-11-25T11:31:01;3.45;;;0.88;;
47617;SDS011;33336;36.728;-4.414;2022-11-25T11:36:17;4.90;;;1.00;;
47617;SDS011;33336;36.728;-4.414;2022-11-25T11:41:37;1.17;;;0.43;;
47617;SDS011;33336;36.728;-4.414;2022-11-25T11:46:49;4.15;;;1.13;;
47617;SDS011;33336;36.728;-4.414;2022-11-25T11:52:06;3.78;;;0.43;;
47617;SDS011;33336;36.728;-4.414;2022-11-25T11:57:17;7.25;;;1.15;;
47617;SDS011;33336;36.728;-4.414;2022-11-25T12:02:34;3.13;;;1.10;;
47617;SDS011;33336;36.728;-4.414;2022-11-25T12:07:49;4.25;;;1.10;;
47617;SDS011;33336;36.728;-4.414;2022-11-25T12:13:02;7.80;;;1.50;;
47617;SDS011;33336;36.728;-4.414;2022-11-25T12:18:14;5.45;;;1.73;;
47617;SDS011;33336;36.728;-4.414;2022-11-25T12:23:28;3.75;;;1.48;;
47617;SDS011;33336;36.728;-4.414;2022-11-25T12:28:41;3.53;;;1.10;;
47617;SDS011;33336;36.728;-4.414;2022-11-25T12:33:52;7.57;;;1.85;;
47617;SDS011;33336;36.728;-4.414;2022-11-25T12:39:03;6.68;;;1.10;;
47617;SDS011;33336;36.728;-4.414;2022-11-25T12:44:14;2.72;;;0.80;;
47617;SDS011;33336;36.728;-4.414;2022-11-25T12:49:20;2.92;;;1.02;;
47617;SDS011;33336;36.728;-4.414;2022-11-25T13:05:17;7.68;;;1.50;;
47617;SDS011;33336;36.728;-4.414;2022-11-25T13:16:05;3.40;;;1.17;;
47617;SDS011;33336;36.728;-4.414;2022-11-25T13:21:09;6.00;;;1.60;;
47617;SDS011;33336;36.728;-4.414;2022-11-25T13:31:55;4.23;;;2.13;;
47617;SDS011;33336;36.728;-4.414;2022-11-25T13:37:00;7.03;;;1.17;;
47617;SDS011;33336;36.728;-4.414;2022-11-25T13:42:23;6.60;;;1.00;;
47617;SDS011;33336;36.728;-4.414;2022-11-25T13:47:31;4.72;;;0.85;;
47617;SDS011;33336;36.728;-4.414;2022-11-25T13:52:38;0.90;;;0.40;;
47617;SDS011;33336;36.728;-4.414;2022-11-25T13:57:44;4.95;;;0.50;;
47617;SDS011;33336;36.728;-4.414;2022-11-25T14:02:50;2.50;;;0.60;;
47617;SDS011;33336;36.728;-4.414;2022-11-25T14:08:00;3.30;;;0.63;;
47617;SDS011;33336;36.728;-4.414;2022-11-25T14:13:15;6.60;;;0.82;;
47617;SDS011;33336;36.728;-4.414;2022-11-25T14:18:43;4.35;;;0.80;;
47617;SDS011;33336;36.728;-4.414;2022-11-25T14:24:03;3.30;;;0.60;;
47617;SDS011;33336;36.728;-4.414;2022-11-25T14:29:17;2.15;;;0.75;;
47617;SDS011;33336;36.728;-4.414;2022-11-25T14:34:26;3.03;;;0.70;;
47617;SDS011;33336;36.728;-4.414;2022-11-25T14:39:35;1.75;;;0.57;;
47617;SDS011;33336;36.728;-4.414;2022-11-25T14:44:44;2.42;;;1.00;;
47617;SDS011;33336;36.728;-4.414;2022-11-25T14:49:52;3.35;;;0.40;;
47617;SDS011;33336;36.728;-4.414;2022-11-25T14:54:56;2.70;;;1.10;;
47617;SDS011;33336;36.728;-4.414;2022-11-25T15:00:02;2.55;;;0.90;;
47617;SDS011;33336;36.728;-4.414;2022-11-25T15:05:13;5.18;;;1.52;;
47617;SDS011;33336;36.728;-4.414;2022-11-25T15:10:28;2.70;;;1.00;;
47617;SDS011;33336;36.728;-4.414;2022-11-25T15:15:43;5.88;;;0.88;;
47617;SDS011;33336;36.728;-4.414;2022-11-25T15:20:48;4.47;;;1.38;;
47617;SDS011;33336;36.728;-4.414;2022-11-25T15:25:56;2.47;;;1.15;;
47617;SDS011;33336;36.728;-4.414;2022-11-25T15:31:01;3.17;;;1.08;;
47617;SDS011;33336;36.728;-4.414;2022-11-25T15:36:11;5.00;;;1.23;;
47617;SDS011;33336;36.728;-4.414;2022-11-25T15:41:19;1.40;;;1.00;;
47617;SDS011;33336;36.728;-4.414;2022-11-25T15:46:28;3.10;;;1.17;;
47617;SDS011;33336;36.728;-4.414;2022-11-25T15:51:39;3.03;;;1.43;;
47617;SDS011;33336;36.728;-4.414;2022-11-25T15:56:45;4.45;;;1.55;;
47617;SDS011;33336;36.728;-4.414;2022-11-25T16:01:51;2.40;;;1.40;;
47617;SDS011;33336;36.728;-4.414;2022-11-25T16:06:55;2.97;;;1.40;;
47617;SDS011;33336;36.728;-4.414;2022-11-25T16:17:08;1.83;;;1.10;;
47617;SDS011;33336;36.728;-4.414;2022-11-25T16:22:18;2.97;;;1.10;;
47617;SDS011;33336;36.728;-4.414;2022-11-25T16:27:27;4.20;;;1.42;;
47617;SDS011;33336;36.728;-4.414;2022-11-25T16:32:31;3.00;;;1.65;;
47617;SDS011;33336;36.728;-4.414;2022-11-25T16:37:35;3.00;;;1.33;;
47617;SDS011;33336;36.728;-4.414;2022-11-25T16:42:39;4.65;;;1.65;;
47617;SDS011;33336;36.728;-4.414;2022-11-25T16:47:42;2.65;;;1.63;;
47617;SDS011;33336;36.728;-4.414;2022-11-25T16:52:47;3.15;;;1.42;;
47617;SDS011;33336;36.728;-4.414;2022-11-25T16:57:50;3.03;;;1.88;;
47617;SDS011;33336;36.728;-4.414;2022-11-25T17:02:54;5.72;;;1.50;;
47617;SDS011;33336;36.728;-4.414;2022-11-25T17:07:58;5.25;;;2.22;;
47617;SDS011;33336;36.728;-4.414;2022-11-25T17:13:01;3.95;;;1.77;;
47617;SDS011;33336;36.728;-4.414;2022-11-25T17:18:05;3.85;;;1.90;;
47617;SDS011;33336;36.728;-4.414;2022-11-25T17:23:15;8.57;;;1.77;;
47617;SDS011;33336;36.728;-4.414;2022-11-25T17:28:18;4.93;;;1.70;;
47617;SDS011;33336;36.728;-4.414;2022-11-25T17:33:21;6.00;;;2.22;;
47617;SDS011;33336;36.728;-4.414;2022-11-25T17:38:26;3.60;;;1.98;;
47617;SDS011;33336;36.728;-4.414;2022-11-25T17:43:29;3.17;;;1.63;;
47617;SDS011;33336;36.728;-4.414;2022-11-25T17:48:32;2.78;;;1.60;;
47617;SDS011;33336;36.728;-4.414;2022-11-25T17:53:36;2.33;;;1.63;;
47617;SDS011;33336;36.728;-4.414;2022-11-25T17:58:40;5.70;;;2.20;;
47617;SDS011;33336;36.728;-4.414;2022-11-25T18:03:43;4.40;;;1.70;;
47617;SDS011;33336;36.728;-4.414;2022-11-25T18:08:47;3.78;;;1.90;;
47617;SDS011;33336;36.728;-4.414;2022-11-25T18:13:51;3.70;;;1.80;;
47617;SDS011;33336;36.728;-4.414;2022-11-25T18:18:55;7.20;;;1.60;;
47617;SDS011;33336;36.728;-4.414;2022-11-25T18:24:00;3.72;;;1.58;;
47617;SDS011;33336;36.728;-4.414;2022-11-25T18:29:03;4.07;;;1.63;;
47617;SDS011;33336;36.728;-4.414;2022-11-25T18:34:11;3.80;;;1.83;;
47617;SDS011;33336;36.728;-4.414;2022-11-25T18:39:17;3.92;;;2.13;;
47617;SDS011;33336;36.728;-4.414;2022-11-25T18:44:21;6.75;;;2.20;;
47617;SDS011;33336;36.728;-4.414;2022-11-25T18:49:25;5.63;;;2.40;;
47617;SDS011;33336;36.728;-4.414;2022-11-25T18:54:30;5.47;;;2.20;;
47617;SDS011;33336;36.728;-4.414;2022-11-25T18:59:33;6.53;;;2.22;;
47617;SDS011;33336;36.728;-4.414;2022-11-25T19:04:38;5.38;;;2.42;;
47617;SDS011;33336;36.728;-4.414;2022-11-25T19:09:42;4.65;;;2.47;;
47617;SDS011;33336;36.728;-4.414;2022-11-25T19:14:46;7.72;;;2.42;;
47617;SDS011;33336;36.728;-4.414;2022-11-25T19:19:50;8.35;;;3.13;;
47617;SDS011;33336;36.728;-4.414;2022-11-25T19:24:55;4.93;;;1.85;;
47617;SDS011;33336;36.728;-4.414;2022-11-25T19:29:58;7.20;;;2.25;;
47617;SDS011;33336;36.728;-4.414;2022-11-25T19:35:04;6.07;;;2.75;;
47617;SDS011;33336;36.728;-4.414;2022-11-25T19:40:13;10.15;;;3.15;;
47617;SDS011;33336;36.728;-4.414;2022-11-25T19:45:22;8.15;;;2.90;;
47617;SDS011;33336;36.728;-4.414;2022-11-25T19:50:28;8.87;;;2.17;;
47617;SDS011;33336;36.728;-4.414;2022-11-25T19:55:43;5.18;;;2.17;;
47617;SDS011;33336;36.728;-4.414;2022-11-25T20:00:47;6.50;;;2.72;;
47617;SDS011;33336;36.728;-4.414;2022-11-25T20:05:51;5.22;;;2.60;;
47617;SDS011;33336;36.728;-4.414;2022-11-25T20:10:56;5.40;;;3.38;;
47617;SDS011;33336;36.728;-4.414;2022-11-25T20:16:00;5.13;;;2.35;;
47617;SDS011;33336;36.728;-4.414;2022-11-25T20:21:03;4.63;;;1.90;;
47617;SDS011;33336;36.728;-4.414;2022-11-25T20:26:10;6.90;;;2.85;;
47617;SDS011;33336;36.728;-4.414;2022-11-25T20:31:17;8.45;;;2.70;;
47617;SDS011;33336;36.728;-4.414;2022-11-25T20:36:22;7.30;;;2.85;;
47617;SDS011;33336;36.728;-4.414;2022-11-25T20:41:33;4.68;;;2.72;;
47617;SDS011;33336;36.728;-4.414;2022-11-25T20:46:35;3.42;;;2.47;;
47617;SDS011;33336;36.728;-4.414;2022-11-25T20:51:38;8.77;;;3.72;;
47617;SDS011;33336;36.728;-4.414;2022-11-25T20:56:44;4.97;;;3.45;;
47617;SDS011;33336;36.728;-4.414;2022-11-25T21:01:47;7.47;;;3.45;;
47617;SDS011;33336;36.728;-4.414;2022-11-25T21:06:51;7.65;;;3.08;;
47617;SDS011;33336;36.728;-4.414;2022-11-25T21:11:55;8.13;;;3.20;;
47617;SDS011;33336;36.728;-4.414;2022-11-25T21:16:59;5.70;;;3.33;;
47617;SDS011;33336;36.728;-4.414;2022-11-25T21:22:03;11.52;;;3.22;;
47617;SDS011;33336;36.728;-4.414;2022-11-25T21:27:10;10.50;;;3.35;;
47617;SDS011;33336;36.728;-4.414;2022-11-25T21:32:19;9.18;;;2.70;;
47617;SDS011;33336;36.728;-4.414;2022-11-25T21:37:25;13.00;;;3.42;;
47617;SDS011;33336;36.728;-4.414;2022-11-25T21:42:37;5.00;;;2.65;;
47617;SDS011;33336;36.728;-4.414;2022-11-25T21:47:41;12.93;;;3.00;;
47617;SDS011;33336;36.728;-4.414;2022-11-25T21:52:44;10.15;;;2.90;;
47617;SDS011;33336;36.728;-4.414;2022-11-25T21:57:48;12.48;;;3.17;;
47617;SDS011;33336;36.728;-4.414;2022-11-25T22:02:51;8.70;;;3.30;;
47617;SDS011;33336;36.728;-4.414;2022-11-25T22:07:55;10.82;;;3.83;;
47617;SDS011;33336;36.728;-4.414;2022-11-25T22:13:00;7.88;;;2.95;;
47617;SDS011;33336;36.728;-4.414;2022-11-25T22:18:08;8.43;;;3.67;;
47617;SDS011;33336;36.728;-4.414;2022-11-25T22:23:18;12.48;;;3.03;;
47617;SDS011;33336;36.728;-4.414;2022-11-25T22:28:25;8.57;;;3.15;;
47617;SDS011;33336;36.728;-4.414;2022-11-25T22:33:31;8.00;;;3.20;;
47617;SDS011;33336;36.728;-4.414;2022-11-25T22:38:36;5.45;;;2.80;;
47617;SDS011;33336;36.728;-4.414;2022-11-25T22:43:44;5.57;;;2.47;;
47617;SDS011;33336;36.728;-4.414;2022-11-25T22:48:53;4.43;;;1.90;;
47617;SDS011;33336;36.728;-4.414;2022-11-25T22:53:55;3.10;;;1.90;;
47617;SDS011;33336;36.728;-4.414;2022-11-25T22:59:01;4.22;;;2.08;;
47617;SDS011;33336;36.728;-4.414;2022-11-25T23:04:04;3.97;;;1.73;;
47617;SDS011;33336;36.728;-4.414;2022-11-25T23:09:12;5.97;;;2.10;;
47617;SDS011;33336;36.728;-4.414;2022-11-25T23:14:18;3.97;;;1.83;;
47617;SDS011;33336;36.728;-4.414;2022-11-25T23:19:22;4.57;;;2.40;;
47617;SDS011;33336;36.728;-4.414;2022-11-25T23:24:24;4.28;;;2.10;;
47617;SDS011;33336;36.728;-4.414;2022-11-25T23:29:29;3.45;;;2.40;;
47617;SDS011;33336;36.728;-4.414;2022-11-25T23:34:32;5.35;;;2.10;;
47617;SDS011;33336;36.728;-4.414;2022-11-25T23:39:36;4.57;;;2.58;;
47617;SDS011;33336;36.728;-4.414;2022-11-25T23:44:40;4.55;;;2.30;;
47617;SDS011;33336;36.728;-4.414;2022-11-25T23:49:44;3.90;;;2.15;;
47617;SDS011;33336;36.728;-4.414;2022-11-25T23:54:49;4.68;;;2.30;;
47617;SDS011;33336;36.728;-4.414;2022-11-25T23:59:55;4.85;;;2.38;;
